createdAt,value
2018-01-21T00:02:01.287Z,25.47
2018-01-21T00:04:28.991Z,20.60
2018-01-21T00:06:56.758Z,20.00
2018-01-21T00:09:24.468Z,22.50
2018-01-21T00:11:52.179Z,23.97
2018-01-21T00:14:19.931Z,23.00
2018-01-21T00:16:47.609Z,20.50
2018-01-21T00:19:15.327Z,19.80
2018-01-21T00:21:43.003Z,20.63
2018-01-21T00:24:10.703Z,19.03
2018-01-21T00:26:38.423Z,19.53
2018-01-21T00:29:06.120Z,21.87
2018-01-21T00:31:33.862Z,22.43
2018-01-21T00:34:01.529Z,26.70
2018-01-21T00:36:29.254Z,21.70
2018-01-21T00:38:56.937Z,24.33
2018-01-21T00:41:25.035Z,21.33
2018-01-21T00:43:52.698Z,27.30
2018-01-21T00:46:20.384Z,26.60
2018-01-21T00:48:48.082Z,29.43
2018-01-21T00:51:35.308Z,31.23
2018-01-21T00:54:02.967Z,27.40
2018-01-21T00:56:30.771Z,32.33
2018-01-21T00:58:58.472Z,28.53
2018-01-21T01:01:26.164Z,31.40
2018-01-21T01:03:53.832Z,32.80
2018-01-21T01:06:21.519Z,29.70
2018-01-21T01:08:49.209Z,32.10
2018-01-21T01:11:16.920Z,29.37
2018-01-21T01:13:44.634Z,29.80
2018-01-21T01:16:12.289Z,26.40
2018-01-21T01:18:39.969Z,30.93
2018-01-21T01:21:09.845Z,29.07
2018-01-21T01:23:37.539Z,27.57
2018-01-21T01:26:05.273Z,26.80
2018-01-21T01:28:33.698Z,25.63
2018-01-21T01:31:01.365Z,23.80
2018-01-21T01:33:28.992Z,25.30
2018-01-21T01:35:57.598Z,26.60
2018-01-21T01:38:25.283Z,26.53
2018-01-21T01:40:52.995Z,25.93
2018-01-21T01:43:20.672Z,23.80
2018-01-21T01:45:48.477Z,25.23
2018-01-21T01:48:16.462Z,24.17
2018-01-21T01:50:44.231Z,23.93
2018-01-21T01:53:11.888Z,24.40
2018-01-21T01:55:39.662Z,21.83
2018-01-21T01:58:07.408Z,22.50
2018-01-21T02:00:35.057Z,22.83
2018-01-21T02:03:02.745Z,25.60
2018-01-21T02:05:30.706Z,26.03
2018-01-21T02:07:58.448Z,22.63
2018-01-21T02:10:26.497Z,24.90
2018-01-21T02:12:59.797Z,21.17
2018-01-21T02:15:27.782Z,23.13
2018-01-21T02:17:55.510Z,21.40
2018-01-21T02:20:29.106Z,23.77
2018-01-21T02:22:56.774Z,20.63
2018-01-21T02:25:25.227Z,19.63
2018-01-21T02:27:52.945Z,21.60
2018-01-21T02:30:21.033Z,19.03
2018-01-21T02:32:48.744Z,18.27
2018-01-21T02:35:16.445Z,19.47
2018-01-21T02:37:44.118Z,18.83
2018-01-21T02:40:11.803Z,18.40
2018-01-21T02:42:39.526Z,23.70
2018-01-21T02:45:07.252Z,17.70
2018-01-21T02:47:34.961Z,18.93
2018-01-21T02:50:04.729Z,17.03
2018-01-21T02:52:32.422Z,18.40
2018-01-21T02:55:00.884Z,14.70
2018-01-21T02:57:28.571Z,14.73
2018-01-21T02:59:57.010Z,17.20
2018-01-21T03:02:24.601Z,19.20
2018-01-21T03:04:52.251Z,19.53
2018-01-21T03:07:19.916Z,20.20
2018-01-21T03:09:47.588Z,18.57
2018-01-21T03:12:16.079Z,19.83
2018-01-21T03:14:44.535Z,15.90
2018-01-21T03:17:12.243Z,16.00
2018-01-21T03:19:40.082Z,15.87
2018-01-21T03:22:07.821Z,16.83
2018-01-21T03:24:36.293Z,15.40
2018-01-21T03:27:04.001Z,15.93
2018-01-21T03:29:31.709Z,16.07
2018-01-21T03:31:59.288Z,14.70
2018-01-21T03:34:26.894Z,13.93
2018-01-21T03:36:55.358Z,13.23
2018-01-21T03:39:23.021Z,11.80
2018-01-21T03:41:50.703Z,13.87
2018-01-21T03:44:18.375Z,13.27
2018-01-21T03:46:46.096Z,14.67
2018-01-21T03:49:13.765Z,15.33
2018-01-21T03:51:41.488Z,15.97
2018-01-21T03:54:09.240Z,17.77
2018-01-21T03:56:36.993Z,16.03
2018-01-21T03:59:05.663Z,16.87
2018-01-21T04:01:35.653Z,19.43
2018-01-21T04:04:03.372Z,19.10
2018-01-21T04:06:31.082Z,23.30
2018-01-21T04:08:58.774Z,20.87
2018-01-21T04:11:27.286Z,23.50
2018-01-21T04:13:54.932Z,23.27
2018-01-21T04:16:22.626Z,24.53
2018-01-21T04:18:50.358Z,26.47
2018-01-21T04:21:18.803Z,27.77
2018-01-21T04:23:46.508Z,30.57
2018-01-21T04:26:14.936Z,30.33
2018-01-21T04:28:42.624Z,28.67
2018-01-21T04:31:10.467Z,32.10
2018-01-21T04:33:38.177Z,35.40
2018-01-21T04:36:06.589Z,38.97
2018-01-21T04:38:34.254Z,36.87
2018-01-21T04:41:01.912Z,35.40
2018-01-21T04:43:29.633Z,39.50
2018-01-21T04:45:57.307Z,35.30
2018-01-21T04:48:25.922Z,35.90
2018-01-21T04:50:53.653Z,36.93
2018-01-21T04:53:21.340Z,35.07
2018-01-21T04:55:49.126Z,36.90
2018-01-21T04:58:17.112Z,41.90
2018-01-21T05:00:44.802Z,37.87
2018-01-21T05:03:13.042Z,37.07
2018-01-21T05:05:40.702Z,38.70
2018-01-21T05:08:08.372Z,37.03
2018-01-21T05:10:36.061Z,41.07
2018-01-21T05:13:03.778Z,37.13
2018-01-21T05:15:31.782Z,36.37
2018-01-21T05:17:59.451Z,32.80
2018-01-21T05:20:27.144Z,32.90
2018-01-21T05:22:54.847Z,33.00
2018-01-21T05:25:22.578Z,25.30
2018-01-21T05:27:50.309Z,25.47
2018-01-21T05:30:18.089Z,26.50
2018-01-21T05:32:45.737Z,27.27
2018-01-21T05:35:13.420Z,29.87
2018-01-21T05:37:41.113Z,29.10
2018-01-21T05:40:08.818Z,30.57
2018-01-21T05:42:36.538Z,31.00
2018-01-21T05:45:04.994Z,36.00
2018-01-21T05:47:32.671Z,30.50
2018-01-21T05:50:01.138Z,30.37
2018-01-21T05:52:28.835Z,37.50
2018-01-21T05:54:57.333Z,36.07
2018-01-21T05:57:24.981Z,34.10
2018-01-21T05:59:52.815Z,33.83
2018-01-21T06:02:20.501Z,38.73
2018-01-21T06:04:48.952Z,38.73
2018-01-21T06:07:16.662Z,36.53
2018-01-21T06:09:44.359Z,30.87
2018-01-21T06:12:12.038Z,34.57
2018-01-21T06:14:39.754Z,35.40
2018-01-21T06:17:07.450Z,31.87
2018-01-21T06:19:35.166Z,38.30
2018-01-21T06:22:03.636Z,36.07
2018-01-21T06:24:31.277Z,37.97
2018-01-21T06:26:58.959Z,40.00
2018-01-21T06:29:35.114Z,37.87
2018-01-21T06:32:02.842Z,35.80
2018-01-21T06:34:30.551Z,42.83
2018-01-21T06:36:58.225Z,40.63
2018-01-21T06:39:25.920Z,47.80
2018-01-21T06:41:53.568Z,39.83
2018-01-21T06:44:21.223Z,44.40
2018-01-21T06:46:48.925Z,49.10
2018-01-21T06:49:16.609Z,41.70
2018-01-21T06:51:44.246Z,47.13
2018-01-21T06:54:11.885Z,47.83
2018-01-21T06:56:39.585Z,46.23
2018-01-21T06:59:07.272Z,40.93
2018-01-21T07:01:34.958Z,37.67
2018-01-21T07:04:02.680Z,45.33
2018-01-21T07:06:30.378Z,46.80
2018-01-21T07:08:58.843Z,44.50
2018-01-21T07:11:26.505Z,41.53
2018-01-21T07:13:54.176Z,29.57
2018-01-21T07:16:21.958Z,48.43
2018-01-21T07:18:49.642Z,40.10
2018-01-21T07:21:18.308Z,42.20
2018-01-21T07:23:46.007Z,33.30
2018-01-21T07:26:13.676Z,30.73
2018-01-21T07:28:41.357Z,28.20
2018-01-21T07:31:09.047Z,25.40
2018-01-21T07:33:36.734Z,23.13
2018-01-21T07:36:05.209Z,31.57
2018-01-21T07:38:32.859Z,23.60
2018-01-21T07:41:00.540Z,22.07
2018-01-21T07:43:28.240Z,19.37
2018-01-21T07:48:29.980Z,17.87
2018-01-21T07:50:57.666Z,21.37
2018-01-21T07:53:25.346Z,25.13
2018-01-21T07:55:53.039Z,22.63
2018-01-21T07:58:20.744Z,24.00
2018-01-21T08:00:48.396Z,20.83
2018-01-21T08:03:16.060Z,22.97
2018-01-21T08:05:44.485Z,24.83
2018-01-21T08:08:12.530Z,21.73
2018-01-21T08:10:40.294Z,26.07
2018-01-21T08:13:07.963Z,23.07
2018-01-21T08:15:35.693Z,25.03
2018-01-21T08:18:03.410Z,21.70
2018-01-21T08:20:31.126Z,26.13
2018-01-21T08:22:59.562Z,20.87
2018-01-21T08:25:27.263Z,18.17
2018-01-21T08:27:54.966Z,21.13
2018-01-21T08:30:22.657Z,20.83
2018-01-21T08:32:50.366Z,17.23
2018-01-21T08:35:24.369Z,19.23
2018-01-21T08:37:57.621Z,22.00
2018-01-21T08:40:31.342Z,22.53
2018-01-21T08:42:59.119Z,25.13
2018-01-21T08:45:27.227Z,26.83
2018-01-21T08:47:55.702Z,29.67
2018-01-21T08:50:24.562Z,24.70
2018-01-21T08:52:52.249Z,24.30
2018-01-21T08:55:20.722Z,30.43
2018-01-21T08:57:48.426Z,23.43
2018-01-21T09:00:16.131Z,26.20
2018-01-21T09:02:49.642Z,21.63
2018-01-21T09:05:17.380Z,21.03
2018-01-21T09:07:45.021Z,19.13
2018-01-21T09:10:12.798Z,23.43
2018-01-21T09:12:40.707Z,23.33
2018-01-21T09:15:08.435Z,26.67
2018-01-21T09:17:36.188Z,28.20
2018-01-21T09:20:03.922Z,32.53
2018-01-21T09:22:31.614Z,28.00
2018-01-21T09:24:59.314Z,28.77
2018-01-21T09:27:27.183Z,27.63
2018-01-21T09:29:54.822Z,30.17
2018-01-21T09:32:23.246Z,30.47
2018-01-21T09:34:51.814Z,33.47
2018-01-21T09:37:19.512Z,29.80
2018-01-21T09:39:51.330Z,30.93
2018-01-21T09:42:19.006Z,34.43
2018-01-21T09:44:46.687Z,35.20
2018-01-21T09:47:20.341Z,39.03
2018-01-21T09:49:48.068Z,32.30
2018-01-21T09:52:16.523Z,31.60
2018-01-21T09:54:44.179Z,38.00
2018-01-21T09:57:11.931Z,40.87
2018-01-21T09:59:39.580Z,40.73
2018-01-21T10:02:07.232Z,32.43
2018-01-21T10:04:34.955Z,28.03
2018-01-21T10:07:02.637Z,26.60
2018-01-21T10:09:30.570Z,22.03
2018-01-21T10:11:58.281Z,26.63
2018-01-21T10:14:25.982Z,19.80
2018-01-21T10:16:53.859Z,16.53
2018-01-21T10:19:21.472Z,21.33
2018-01-21T10:21:49.143Z,20.30
2018-01-21T10:24:16.849Z,23.10
2018-01-21T10:26:44.517Z,19.93
2018-01-21T10:29:12.182Z,18.37
2018-01-21T10:31:41.087Z,18.50
2018-01-21T10:34:08.762Z,15.70
2018-01-21T10:36:37.277Z,20.07
2018-01-21T10:39:05.050Z,18.27
2018-01-21T10:41:32.731Z,19.53
2018-01-21T10:44:00.396Z,17.67
2018-01-21T10:46:28.098Z,15.27
2018-01-21T10:48:55.798Z,16.43
2018-01-21T10:51:23.512Z,15.90
2018-01-21T10:53:51.159Z,17.47
2018-01-21T10:56:18.890Z,17.33
2018-01-21T10:58:46.619Z,16.10
2018-01-21T11:01:22.836Z,14.47
2018-01-21T11:03:50.567Z,17.97
2018-01-21T11:06:18.999Z,18.53
2018-01-21T11:08:46.690Z,16.23
2018-01-21T11:11:14.411Z,22.40
2018-01-21T11:13:42.128Z,20.43
2018-01-21T11:16:09.818Z,21.30
2018-01-21T11:18:37.499Z,19.13
2018-01-21T11:21:05.170Z,21.00
2018-01-21T11:23:32.825Z,19.47
2018-01-21T11:26:00.551Z,17.10
2018-01-21T11:28:28.280Z,16.57
2018-01-21T11:30:56.309Z,15.50
2018-01-21T11:33:24.014Z,15.37
2018-01-21T11:35:51.642Z,16.47
2018-01-21T11:38:19.340Z,15.77
2018-01-21T11:40:47.033Z,18.80
2018-01-21T11:43:15.504Z,16.33
2018-01-21T11:45:43.224Z,18.00
2018-01-21T11:48:10.934Z,18.53
2018-01-21T11:50:38.596Z,19.93
2018-01-21T11:53:06.287Z,18.57
2018-01-21T11:55:33.966Z,17.90
2018-01-21T11:58:01.639Z,15.43
2018-01-21T12:00:30.443Z,16.03
2018-01-21T12:02:58.192Z,15.57
2018-01-21T12:05:25.927Z,17.93
2018-01-21T12:07:54.328Z,15.77
2018-01-21T12:10:22.065Z,14.53
2018-01-21T12:12:50.638Z,14.97
2018-01-21T12:15:18.313Z,14.13
2018-01-21T12:17:46.058Z,11.60
2018-01-21T12:20:13.747Z,16.40
2018-01-21T12:22:42.231Z,20.17
2018-01-21T12:25:09.876Z,14.60
2018-01-21T12:27:37.546Z,18.27
2018-01-21T12:30:11.587Z,17.40
2018-01-21T12:32:39.211Z,15.83
2018-01-21T12:35:06.874Z,16.70
2018-01-21T12:37:34.458Z,18.00
2018-01-21T12:40:02.202Z,19.27
2018-01-21T12:42:29.878Z,13.93
2018-01-21T12:44:58.516Z,16.03
2018-01-21T12:47:26.209Z,14.17
2018-01-21T12:49:53.880Z,14.43
2018-01-21T12:52:21.600Z,16.57
2018-01-21T12:54:49.359Z,13.73
2018-01-21T12:57:17.332Z,16.97
2018-01-21T12:59:52.120Z,18.47
2018-01-21T13:02:20.607Z,16.33
2018-01-21T13:04:48.250Z,17.30
2018-01-21T13:07:15.925Z,16.67
2018-01-21T13:09:43.585Z,16.37
2018-01-21T13:12:11.249Z,19.73
2018-01-21T13:14:39.733Z,17.73
2018-01-21T13:17:08.146Z,14.63
2018-01-21T13:19:35.820Z,13.07
2018-01-21T13:22:03.532Z,13.53
2018-01-21T13:24:31.200Z,11.93
2018-01-21T13:26:58.835Z,12.70
2018-01-21T13:29:26.550Z,12.43
2018-01-21T13:31:54.254Z,11.60
2018-01-21T13:34:21.864Z,10.87
2018-01-21T13:36:49.538Z,11.67
2018-01-21T13:39:17.232Z,11.53
2018-01-21T13:41:44.927Z,14.30
2018-01-21T13:44:12.609Z,12.50
2018-01-21T13:46:41.138Z,14.63
2018-01-21T13:49:08.772Z,12.13
2018-01-21T13:51:39.429Z,12.87
2018-01-21T13:54:07.145Z,11.77
2018-01-21T13:56:34.822Z,11.53
2018-01-21T13:59:02.526Z,11.17
2018-01-21T14:01:30.224Z,9.60
2018-01-21T14:03:57.908Z,11.23
2018-01-21T14:06:25.627Z,11.53
2018-01-21T14:08:53.320Z,10.77
2018-01-21T14:11:20.955Z,8.60
2018-01-21T14:13:48.655Z,7.83
2018-01-21T14:16:16.290Z,9.43
2018-01-21T14:18:44.343Z,9.57
2018-01-21T14:21:12.959Z,9.50
2018-01-21T14:23:40.665Z,11.10
2018-01-21T14:26:08.354Z,10.07
2018-01-21T14:28:36.048Z,11.77
2018-01-21T14:31:03.728Z,12.00
2018-01-21T14:33:31.388Z,9.00
2018-01-21T14:35:59.103Z,10.87
2018-01-21T14:38:26.768Z,9.23
2018-01-21T14:40:54.427Z,9.03
2018-01-21T14:43:22.110Z,8.50
2018-01-21T14:45:49.808Z,10.60
2018-01-21T14:48:17.521Z,6.90
2018-01-21T14:50:48.244Z,6.73
2018-01-21T14:53:15.972Z,7.03
2018-01-21T14:55:43.578Z,5.80
2018-01-21T14:58:11.261Z,7.23
2018-01-21T15:00:39.747Z,7.37
2018-01-21T15:03:07.414Z,5.37
2018-01-21T15:05:35.104Z,7.63
2018-01-21T15:08:02.823Z,4.40
2018-01-21T15:10:30.515Z,4.23
2018-01-21T15:12:58.202Z,5.40
2018-01-21T15:15:25.919Z,4.97
2018-01-21T15:17:53.612Z,5.20
2018-01-21T15:20:22.252Z,7.77
2018-01-21T15:22:49.920Z,6.90
2018-01-21T15:25:17.579Z,6.10
2018-01-21T15:27:45.272Z,7.13
2018-01-21T15:30:12.953Z,5.70
2018-01-21T15:32:40.679Z,6.83
2018-01-21T15:35:08.323Z,5.53
2018-01-21T15:37:36.020Z,8.67
2018-01-21T15:40:03.743Z,5.73
2018-01-21T15:42:31.404Z,6.27
2018-01-21T15:44:59.840Z,6.37
2018-01-21T15:47:27.531Z,5.53
2018-01-21T15:49:58.371Z,5.30
2018-01-21T15:52:26.047Z,5.43
2018-01-21T15:54:53.712Z,4.90
2018-01-21T15:57:21.371Z,5.93
2018-01-21T15:59:49.811Z,8.23
2018-01-21T16:02:17.488Z,5.87
2018-01-21T16:04:45.138Z,6.47
2018-01-21T16:07:12.755Z,6.93
2018-01-21T16:09:41.246Z,9.10
2018-01-21T16:12:08.977Z,6.47
2018-01-21T16:14:36.577Z,5.23
2018-01-21T16:17:04.220Z,7.47
2018-01-21T16:19:36.795Z,7.17
2018-01-21T16:22:05.260Z,6.10
2018-01-21T16:24:32.964Z,10.97
2018-01-21T16:27:00.662Z,8.57
2018-01-21T16:29:28.385Z,9.33
2018-01-21T16:31:56.088Z,10.17
2018-01-21T16:34:23.763Z,14.53
2018-01-21T16:36:51.491Z,13.90
2018-01-21T16:39:19.198Z,16.90
2018-01-21T16:41:46.840Z,12.43
2018-01-21T16:44:14.556Z,13.23
2018-01-21T16:46:42.250Z,12.80
2018-01-21T16:49:09.944Z,11.23
2018-01-21T16:51:37.613Z,9.63
2018-01-21T16:54:05.292Z,11.33
2018-01-21T16:56:32.969Z,11.23
2018-01-21T16:59:01.454Z,11.93
2018-01-21T17:01:29.113Z,16.50
2018-01-21T17:03:57.574Z,12.77
2018-01-21T17:06:25.242Z,28.10
2018-01-21T17:08:52.957Z,11.77
2018-01-21T17:11:21.765Z,12.50
2018-01-21T17:13:49.470Z,12.23
2018-01-21T17:16:17.170Z,13.17
2018-01-21T17:18:44.845Z,12.83
2018-01-21T17:21:12.547Z,12.53
2018-01-21T17:23:40.212Z,12.83
2018-01-21T17:26:07.897Z,11.73
2018-01-21T17:28:35.544Z,12.40
2018-01-21T17:31:03.230Z,11.80
2018-01-21T17:33:31.715Z,11.57
2018-01-21T17:35:59.411Z,11.27
2018-01-21T17:38:27.107Z,9.40
2018-01-21T17:40:58.327Z,9.93
2018-01-21T17:43:26.015Z,9.90
2018-01-21T17:45:53.719Z,12.53
2018-01-21T17:48:21.393Z,12.57
2018-01-21T17:50:49.073Z,11.63
2018-01-21T17:53:16.770Z,13.30
2018-01-21T17:55:44.445Z,13.03
2018-01-21T17:58:12.107Z,12.53
2018-01-21T18:00:39.805Z,15.23
2018-01-21T18:03:07.458Z,15.60
2018-01-21T18:05:35.141Z,16.80
2018-01-21T18:08:02.853Z,15.43
2018-01-21T18:10:31.546Z,15.17
2018-01-21T18:12:59.233Z,18.80
2018-01-21T18:15:27.569Z,17.87
2018-01-21T18:17:55.266Z,18.10
2018-01-21T18:20:22.980Z,16.70
2018-01-21T18:22:50.641Z,16.63
2018-01-21T18:25:18.281Z,17.77
2018-01-21T18:27:45.976Z,19.33
2018-01-21T18:30:13.687Z,16.53
2018-01-21T18:32:42.121Z,19.13
2018-01-21T18:35:09.779Z,20.10
2018-01-21T18:37:37.445Z,19.70
2018-01-21T18:40:06.061Z,20.27
2018-01-21T18:42:33.776Z,22.63
2018-01-21T18:45:01.448Z,21.40
2018-01-21T18:47:29.122Z,22.60
2018-01-21T18:49:56.823Z,24.23
2018-01-21T18:52:24.523Z,23.40
2018-01-21T18:54:52.237Z,22.03
2018-01-21T18:57:19.913Z,24.53
2018-01-21T18:59:47.621Z,24.40
2018-01-21T19:02:15.355Z,25.83
2018-01-21T19:04:43.835Z,24.53
2018-01-21T19:07:12.278Z,26.70
2018-01-21T19:09:43.650Z,22.33
2018-01-21T19:12:11.275Z,26.03
2018-01-21T19:14:39.052Z,25.47
2018-01-21T19:17:06.748Z,28.20
2018-01-21T19:19:34.402Z,24.13
2018-01-21T19:22:02.107Z,23.80
2018-01-21T19:24:29.831Z,30.87
2018-01-21T19:26:57.923Z,29.97
2018-01-21T19:29:25.644Z,29.17
2018-01-21T19:31:53.362Z,28.90
2018-01-21T19:34:20.950Z,31.80
2018-01-21T19:36:48.629Z,25.53
2018-01-21T19:39:18.238Z,30.70
2018-01-21T19:41:46.482Z,31.37
2018-01-21T19:47:10.044Z,31.47
2018-01-21T19:49:37.738Z,31.47
2018-01-21T19:52:05.463Z,29.33
2018-01-21T19:54:33.178Z,31.73
2018-01-21T19:57:00.881Z,32.77
2018-01-21T19:59:28.575Z,34.77
2018-01-21T20:01:56.238Z,34.27
2018-01-21T20:04:24.682Z,34.37
2018-01-21T20:06:52.404Z,34.07
2018-01-21T20:09:20.103Z,30.67
2018-01-21T20:11:47.949Z,32.60
2018-01-21T20:14:15.669Z,30.90
2018-01-21T20:16:43.360Z,34.53
2018-01-21T20:19:11.059Z,36.40
2018-01-21T20:21:38.845Z,39.17
2018-01-21T20:24:06.517Z,33.70
2018-01-21T20:26:34.262Z,30.00
2018-01-21T20:29:01.920Z,32.70
2018-01-21T20:31:29.600Z,35.23
2018-01-21T20:33:57.300Z,34.57
2018-01-21T20:36:24.970Z,39.43
2018-01-21T20:38:52.654Z,43.27
2018-01-21T20:41:23.409Z,37.87
2018-01-21T20:43:51.111Z,37.40
2018-01-21T20:46:18.840Z,39.57
2018-01-21T20:48:46.521Z,44.30
2018-01-21T20:54:22.531Z,44.53
2018-01-21T20:56:50.186Z,38.87
2018-01-21T20:59:17.853Z,37.03
2018-01-21T21:01:46.339Z,40.30
2018-01-21T21:04:14.015Z,42.97
2018-01-21T21:06:41.726Z,44.33
2018-01-21T21:09:09.394Z,45.67
2018-01-21T21:11:37.081Z,46.97
2018-01-21T21:14:05.535Z,40.50
2018-01-21T21:16:33.246Z,50.30
2018-01-21T21:19:00.957Z,43.90
2018-01-21T21:21:32.617Z,41.50
2018-01-21T21:24:00.307Z,42.53
2018-01-21T21:26:33.160Z,46.23
2018-01-21T21:29:05.296Z,42.63
2018-01-21T21:31:39.060Z,45.20
2018-01-21T21:34:07.055Z,40.60
2018-01-21T21:36:34.744Z,41.40
2018-01-21T21:39:02.387Z,35.00
2018-01-21T21:41:30.967Z,41.43
2018-01-21T21:43:58.651Z,39.67
2018-01-21T21:46:26.341Z,40.93
2018-01-21T21:48:53.925Z,43.73
2018-01-21T21:51:21.595Z,42.50
2018-01-21T21:53:49.306Z,39.23
2018-01-21T21:56:16.894Z,44.00
2018-01-21T21:58:44.600Z,42.23
2018-01-21T22:01:13.202Z,40.60
2018-01-21T22:03:40.846Z,41.90
2018-01-21T22:06:08.489Z,37.07
2018-01-21T22:08:36.173Z,37.27
2018-01-21T22:11:04.650Z,34.90
2018-01-21T22:13:32.330Z,27.90
2018-01-21T22:16:00.782Z,37.73
2018-01-21T22:18:28.474Z,31.47
2018-01-21T22:20:56.916Z,31.43
2018-01-21T22:23:24.626Z,33.00
2018-01-21T22:25:52.334Z,32.47
2018-01-21T22:28:20.028Z,38.53
2018-01-21T22:30:51.213Z,31.97
2018-01-21T22:33:18.918Z,33.83
2018-01-21T22:35:46.612Z,28.90
2018-01-21T22:38:14.314Z,30.90
2018-01-21T22:40:42.001Z,31.00
2018-01-21T22:43:09.697Z,31.73
2018-01-21T22:45:37.380Z,33.93
2018-01-21T22:48:05.117Z,36.07
2018-01-21T22:50:33.138Z,31.33
2018-01-21T22:53:00.851Z,29.73
2018-01-21T22:55:28.563Z,31.40
2018-01-21T22:57:56.259Z,33.50
2018-01-21T23:00:27.423Z,33.57
2018-01-21T23:02:55.121Z,33.47
2018-01-21T23:05:22.807Z,34.37
2018-01-21T23:07:50.496Z,35.57
2018-01-21T23:10:18.182Z,34.07
2018-01-21T23:12:45.821Z,32.80
2018-01-21T23:15:13.521Z,37.17
2018-01-21T23:17:42.018Z,32.20
2018-01-21T23:20:10.446Z,35.33
2018-01-21T23:22:38.140Z,37.00
2018-01-21T23:25:05.778Z,32.93
2018-01-21T23:27:33.587Z,36.00
2018-01-21T23:30:05.161Z,33.67
2018-01-21T23:32:32.800Z,39.70
2018-01-21T23:35:01.218Z,31.23
2018-01-21T23:37:28.897Z,33.67
2018-01-21T23:39:56.597Z,33.10
2018-01-21T23:42:24.277Z,34.17
2018-01-21T23:44:51.942Z,28.50
2018-01-21T23:47:20.361Z,30.17
2018-01-21T23:49:48.026Z,34.77
2018-01-21T23:52:15.701Z,31.80
2018-01-21T23:54:43.381Z,34.50
2018-01-21T23:57:11.112Z,31.73
2018-01-21T23:59:42.145Z,30.17
